Time;durP1;ratioP1;P1;durP2;ratioP2;P2;SDS_P1;SDS_P2;PMS_P1;PMS_P2;Temp;Humidity;BMP_temperature;BMP_pressure;BME280_temperature;BME280_humidity;BME280_pressure;Samples;Min_cycle;Max_cycle;Signal;HPM_P1;HPM_P2
2022/11/22 00:01:07;;;;;;;11.33;2.97;;;8.10;99.90;;;;;;5117442;23;20243;-81
2022/11/22 00:03:36;;;;;;;14.40;3.57;;;8.00;99.90;;;;;;5029068;28;20615;-82
2022/11/22 00:06:07;;;;;;;14.27;3.90;;;8.00;99.90;;;;;;5043930;28;20176;-83
2022/11/22 00:08:33;;;;;;;15.47;4.47;;;8.00;99.90;;;;;;5008071;28;20201;-82
2022/11/22 00:11:00;;;;;;;14.67;3.27;;;8.10;99.90;;;;;;5041648;28;20177;-81
2022/11/22 00:13:26;;;;;;;9.80;3.03;;;8.10;99.90;;;;;;5023808;28;20221;-84
2022/11/22 00:16:03;;;;;;;13.73;3.83;;;8.20;99.90;;;;;;5023272;28;20173;-82
2022/11/22 00:18:31;;;;;;;11.20;3.27;;;8.00;99.90;;;;;;5022150;28;20211;-83
2022/11/22 00:21:03;;;;;;;9.60;3.07;;;8.00;99.90;;;;;;5021773;28;20637;-83
2022/11/22 00:23:29;;;;;;;10.40;2.97;;;8.00;99.90;;;;;;5021625;28;20177;-83
2022/11/22 00:25:54;;;;;;;14.60;3.10;;;8.00;99.90;;;;;;5042956;28;20165;-82
2022/11/22 00:28:20;;;;;;;13.77;3.60;;;8.00;99.90;;;;;;5024756;28;20189;-83
2022/11/22 00:30:46;;;;;;;15.60;3.43;;;7.90;99.90;;;;;;5021745;28;20192;-83
2022/11/22 00:33:11;;;;;;;10.67;2.63;;;7.90;99.90;;;;;;5001631;28;20293;-84
2022/11/22 00:35:37;;;;;;;13.30;3.40;;;8.10;99.90;;;;;;5019361;28;20210;-83
2022/11/22 00:38:13;;;;;;;15.30;3.17;;;7.90;99.90;;;;;;5005143;28;20178;-84
2022/11/22 00:40:40;;;;;;;11.30;2.77;;;7.80;99.90;;;;;;5003928;28;20244;-83
2022/11/22 00:43:06;;;;;;;13.37;3.60;;;7.80;99.90;;;;;;5023814;28;20253;-83
2022/11/22 00:45:37;;;;;;;15.30;3.80;;;7.70;99.90;;;;;;5003534;28;20592;-82
2022/11/22 00:48:03;;;;;;;15.17;3.43;;;7.70;99.90;;;;;;5015557;28;20178;-82
2022/11/22 00:50:29;;;;;;;12.03;3.20;;;7.60;99.90;;;;;;5037689;28;20222;-83
2022/11/22 00:52:55;;;;;;;13.37;3.40;;;7.60;99.90;;;;;;5021704;28;20166;-82
2022/11/22 00:55:23;;;;;;;11.70;2.77;;;7.60;99.90;;;;;;5015465;28;20208;-83
2022/11/22 00:58:04;;;;;;;14.03;2.97;;;7.60;99.90;;;;;;5024992;28;20212;-83
2022/11/22 01:00:30;;;;;;;11.70;3.50;;;7.60;99.90;;;;;;5002508;28;20206;-83
2022/11/22 01:02:59;;;;;;;13.63;3.10;;;7.60;99.90;;;;;;5025216;28;20619;-82
2022/11/22 01:05:25;;;;;;;18.87;4.53;;;7.60;99.90;;;;;;5023489;28;20167;-82
2022/11/22 01:07:50;;;;;;;15.67;2.70;;;7.60;99.90;;;;;;5005111;28;20181;-84
2022/11/22 01:10:17;;;;;;;12.43;3.50;;;7.50;99.90;;;;;;5022183;28;20258;-83
2022/11/22 01:12:43;;;;;;;14.13;3.33;;;7.50;99.90;;;;;;4987444;28;20186;-83
2022/11/22 01:15:09;;;;;;;12.30;2.80;;;7.50;99.90;;;;;;5022560;28;20178;-83
2022/11/22 01:17:35;;;;;;;11.53;3.10;;;7.40;99.90;;;;;;5019603;28;20187;-82
2022/11/22 01:20:01;;;;;;;15.87;3.47;;;7.40;99.90;;;;;;5040102;28;20225;-84
2022/11/22 01:22:27;;;;;;;12.67;3.10;;;7.50;99.90;;;;;;5024180;28;20159;-83
2022/11/22 01:24:56;;;;;;;8.27;3.27;;;7.40;99.90;;;;;;5016731;28;20183;-83
2022/11/22 01:27:24;;;;;;;11.70;3.13;;;7.40;99.90;;;;;;5023890;28;20171;-84
2022/11/22 01:29:57;;;;;;;11.73;3.40;;;7.40;99.90;;;;;;5012895;28;20217;-83
2022/11/22 01:32:23;;;;;;;10.60;3.40;;;7.40;99.90;;;;;;5027380;28;20264;-83
2022/11/22 01:34:49;;;;;;;13.00;2.70;;;7.40;99.90;;;;;;5025283;28;20623;-84
2022/11/22 01:37:14;;;;;;;12.37;3.10;;;7.30;99.90;;;;;;5028134;28;20197;-81
2022/11/22 01:39:40;;;;;;;10.83;2.90;;;7.40;99.90;;;;;;5006063;28;20643;-84
2022/11/22 01:42:06;;;;;;;14.80;3.10;;;7.30;99.90;;;;;;5004794;28;20177;-84
2022/11/22 01:44:35;;;;;;;14.40;3.10;;;7.30;99.90;;;;;;5022239;28;20924;-84
2022/11/22 01:47:18;;;;;;;11.17;2.80;;;7.20;99.90;;;;;;5027621;28;20166;-84
2022/11/22 01:49:54;;;;;;;10.43;2.90;;;7.20;99.90;;;;;;5007723;28;20178;-84
2022/11/22 01:52:26;;;;;;;9.97;2.83;;;7.20;99.90;;;;;;5025362;28;20177;-80
2022/11/22 01:54:57;;;;;;;12.60;3.23;;;7.10;99.90;;;;;;4989093;28;20166;-80
2022/11/22 01:57:31;;;;;;;11.60;3.07;;;7.10;99.90;;;;;;5022336;28;20173;-82
2022/11/22 02:00:02;;;;;;;10.07;3.10;;;7.10;99.90;;;;;;5020648;28;20194;-82
2022/11/22 02:02:34;;;;;;;10.60;2.47;;;7.20;99.90;;;;;;5003452;28;20244;-82
2022/11/22 02:05:05;;;;;;;10.93;2.57;;;7.20;99.90;;;;;;5020752;28;20171;-81
2022/11/22 02:07:46;;;;;;;11.30;2.83;;;7.10;99.90;;;;;;5021812;28;20661;-80
2022/11/22 02:10:15;;;;;;;14.03;3.07;;;7.00;99.90;;;;;;5020033;28;20177;-81
2022/11/22 02:12:41;;;;;;;10.20;2.60;;;7.00;99.90;;;;;;4999769;28;20181;-80
2022/11/22 02:15:07;;;;;;;13.50;3.20;;;6.90;99.90;;;;;;5019342;28;20259;-81
2022/11/22 02:17:33;;;;;;;10.60;2.43;;;6.90;99.90;;;;;;5018753;28;20161;-79
2022/11/22 02:19:58;;;;;;;12.17;2.90;;;6.90;99.90;;;;;;5000892;28;20210;-79
2022/11/22 02:22:48;;;;;;;10.67;2.47;;;6.80;99.90;;;;;;5019336;28;20177;-82
2022/11/22 02:25:28;;;;;;;12.57;2.50;;;6.80;99.90;;;;;;5002230;28;20225;-84
2022/11/22 02:27:54;;;;;;;11.60;2.47;;;6.80;99.90;;;;;;5027364;28;20163;-83
2022/11/22 02:30:20;;;;;;;11.20;2.73;;;6.80;99.90;;;;;;5011231;28;20181;-82
2022/11/22 02:32:47;;;;;;;9.57;2.30;;;6.90;99.90;;;;;;5005068;28;20194;-82
2022/11/22 02:35:19;;;;;;;9.20;2.57;;;6.80;99.90;;;;;;5021287;28;20261;-84
2022/11/22 02:37:48;;;;;;;7.87;2.17;;;6.70;99.90;;;;;;5015678;28;20154;-81
2022/11/22 02:40:15;;;;;;;11.07;3.07;;;6.80;99.90;;;;;;5039829;28;20229;-81
2022/11/22 02:42:51;;;;;;;10.23;2.37;;;6.70;99.90;;;;;;5023635;28;20159;-82
2022/11/22 02:45:22;;;;;;;8.97;2.40;;;6.80;99.90;;;;;;5035916;28;20166;-83
2022/11/22 02:47:51;;;;;;;8.40;2.43;;;6.80;99.90;;;;;;5013608;28;20653;-84
2022/11/22 02:50:23;;;;;;;7.97;2.27;;;6.80;99.90;;;;;;5015639;28;20220;-83
2022/11/22 02:52:58;;;;;;;6.33;1.97;;;6.70;99.90;;;;;;5022990;28;20229;-83
2022/11/22 02:55:24;;;;;;;9.13;2.60;;;6.70;99.90;;;;;;5039511;28;20166;-81
2022/11/22 02:57:56;;;;;;;10.93;2.50;;;6.60;99.90;;;;;;5035610;28;20175;-83
2022/11/22 03:00:22;;;;;;;13.90;3.10;;;6.60;99.90;;;;;;5039414;28;20210;-84
2022/11/22 03:02:48;;;;;;;9.03;2.80;;;6.60;99.90;;;;;;5039493;28;20249;-83
2022/11/22 03:05:14;;;;;;;7.10;2.20;;;6.60;99.90;;;;;;5022872;28;20170;-84
2022/11/22 03:07:39;;;;;;;8.87;2.37;;;6.60;99.90;;;;;;5016483;28;20285;-84
2022/11/22 03:10:05;;;;;;;12.27;2.20;;;6.60;99.90;;;;;;5025345;28;20353;-82
2022/11/22 03:12:34;;;;;;;7.70;2.00;;;6.50;99.90;;;;;;5006854;28;20475;-84
2022/11/22 03:15:00;;;;;;;9.37;2.40;;;6.50;99.90;;;;;;5026065;28;20167;-83
2022/11/22 03:17:26;;;;;;;9.53;2.60;;;6.40;99.90;;;;;;5006975;28;20173;-83
2022/11/22 03:20:20;;;;;;;8.60;2.07;;;6.40;99.90;;;;;;5022754;28;20206;-83
2022/11/22 03:22:48;;;;;;;7.20;2.10;;;6.40;99.90;;;;;;5002989;28;20228;-83
2022/11/22 03:25:15;;;;;;;7.37;2.20;;;6.40;99.90;;;;;;5019928;28;20184;-83
2022/11/22 03:27:41;;;;;;;7.20;2.20;;;6.40;99.90;;;;;;5024082;28;20234;-82
2022/11/22 03:30:07;;;;;;;6.87;2.27;;;6.40;99.90;;;;;;5024306;28;20181;-82
2022/11/22 03:32:33;;;;;;;11.20;2.73;;;6.40;99.90;;;;;;5023495;28;20187;-84
2022/11/22 03:34:59;;;;;;;6.83;2.10;;;6.40;99.90;;;;;;5001128;28;20178;-83
2022/11/22 03:37:30;;;;;;;10.50;2.67;;;6.40;99.90;;;;;;5000337;28;20653;-84
2022/11/22 03:39:56;;;;;;;8.03;2.43;;;6.50;99.90;;;;;;5017825;28;20209;-85
2022/11/22 03:42:23;;;;;;;10.67;2.23;;;6.40;99.90;;;;;;5001199;28;20181;-83
2022/11/22 03:44:49;;;;;;;6.23;2.80;;;6.40;99.90;;;;;;5019491;28;20170;-85
2022/11/22 03:47:15;;;;;;;8.50;2.43;;;6.30;99.90;;;;;;5021889;28;20245;-84
2022/11/22 03:49:41;;;;;;;9.67;2.40;;;6.30;99.90;;;;;;5000765;28;20214;-83
2022/11/22 03:52:07;;;;;;;6.03;1.93;;;6.30;99.90;;;;;;5025950;28;20162;-83
2022/11/22 03:54:34;;;;;;;8.97;2.80;;;6.30;99.90;;;;;;5038591;28;20234;-83
2022/11/22 03:59:33;;;;;;;9.27;2.30;;;6.40;99.90;;;;;;5011856;28;20241;-83
2022/11/22 04:02:04;;;;;;;8.37;2.30;;;6.30;99.90;;;;;;4987077;28;20194;-85
2022/11/22 04:04:30;;;;;;;7.83;2.30;;;6.30;99.90;;;;;;5004799;28;20163;-84
2022/11/22 04:06:59;;;;;;;8.80;2.13;;;6.40;99.90;;;;;;4980880;28;20202;-83
2022/11/22 04:09:43;;;;;;;8.67;2.17;;;6.40;99.90;;;;;;4982438;28;20201;-83
2022/11/22 04:12:17;;;;;;;7.47;2.50;;;6.40;99.90;;;;;;4999634;28;20159;-82
2022/11/22 04:17:43;;;;;;;7.43;3.00;;;6.60;99.90;;;;;;4997865;28;20218;-82
2022/11/22 04:23:14;;;;;;;7.67;2.63;;;6.40;99.90;;;;;;5001677;28;20206;-81
2022/11/22 04:25:44;;;;;;;12.20;2.93;;;6.40;99.90;;;;;;4999825;28;20163;-80
2022/11/22 04:28:12;;;;;;;9.37;2.27;;;6.40;99.90;;;;;;4997752;28;20167;-79
2022/11/22 04:33:22;;;;;;;8.73;2.00;;;6.40;99.90;;;;;;4981132;28;20525;-83
2022/11/22 04:35:50;;;;;;;9.30;2.27;;;6.40;99.90;;;;;;4976972;28;20693;-81
2022/11/22 04:38:17;;;;;;;9.33;2.47;;;6.60;99.90;;;;;;4979293;28;20168;-83
2022/11/22 04:40:43;;;;;;;11.43;3.50;;;6.40;99.90;;;;;;4965778;28;20155;-82
2022/11/22 04:46:16;;;;;;;8.63;2.10;;;6.40;99.90;;;;;;4992037;28;20206;-81
2022/11/22 04:48:42;;;;;;;11.07;2.27;;;6.50;99.90;;;;;;4981912;28;20191;-81
2022/11/22 04:53:57;;;;;;;6.73;2.13;;;6.50;99.90;;;;;;4987367;28;20644;-82
2022/11/22 04:56:22;;;;;;;6.20;2.17;;;6.50;99.90;;;;;;4980647;28;20179;-82
2022/11/22 04:58:51;;;;;;;10.03;3.27;;;6.60;99.90;;;;;;4979863;28;20219;-82
2022/11/22 05:01:19;;;;;;;7.33;2.53;;;6.60;99.90;;;;;;4978728;28;20188;-83
2022/11/22 05:03:47;;;;;;;8.90;2.60;;;6.50;99.90;;;;;;4961153;28;20175;-82
2022/11/22 05:06:13;;;;;;;9.27;2.40;;;6.50;99.90;;;;;;4961580;28;20532;-82
2022/11/22 05:09:15;;;;;;;7.10;2.30;;;6.40;99.90;;;;;;4965724;28;20171;-83
2022/11/22 05:11:42;;;;;;;6.87;2.47;;;6.40;99.90;;;;;;4974457;28;20171;-81
2022/11/22 05:14:48;;;;;;;6.63;2.53;;;6.40;99.90;;;;;;4974000;28;20180;-82
2022/11/22 05:17:32;;;;;;;8.37;2.63;;;6.40;99.90;;;;;;4994549;28;20183;-78
2022/11/22 05:20:18;;;;;;;8.03;2.50;;;6.40;99.90;;;;;;4996310;28;20226;-80
2022/11/22 05:25:56;;;;;;;9.13;2.37;;;6.40;99.90;;;;;;5029508;23;20226;-79
2022/11/22 05:28:30;;;;;;;9.33;2.73;;;6.40;99.90;;;;;;4982433;28;20156;-83
2022/11/22 05:30:56;;;;;;;8.20;2.83;;;6.50;99.90;;;;;;4981593;28;20178;-81
2022/11/22 05:35:50;;;;;;;7.90;2.67;;;6.50;99.90;;;;;;5026117;28;20229;-82
2022/11/22 05:38:18;;;;;;;13.63;2.70;;;6.50;99.90;;;;;;5020427;28;20197;-82
2022/11/22 05:40:47;;;;;;;10.90;3.30;;;6.50;99.90;;;;;;5024588;28;20560;-82
2022/11/22 05:43:24;;;;;;;7.53;2.70;;;6.50;99.90;;;;;;5010014;28;20198;-83
2022/11/22 05:45:52;;;;;;;9.97;2.80;;;6.50;99.90;;;;;;5022828;28;20194;-82
2022/11/22 05:48:18;;;;;;;11.70;3.03;;;6.50;99.90;;;;;;5025630;28;20249;-84
2022/11/22 05:50:44;;;;;;;7.33;2.60;;;6.50;99.90;;;;;;5025251;28;20167;-83
2022/11/22 05:53:09;;;;;;;6.80;2.60;;;6.50;99.90;;;;;;5009724;28;20205;-83
2022/11/22 05:55:35;;;;;;;9.33;2.70;;;6.60;99.90;;;;;;5025886;28;20178;-83
2022/11/22 05:58:07;;;;;;;7.20;3.53;;;6.60;99.90;;;;;;5008368;28;20181;-83
2022/11/22 06:00:34;;;;;;;8.97;2.47;;;6.70;99.90;;;;;;5026754;28;20242;-84
2022/11/22 06:03:02;;;;;;;5.80;2.47;;;6.70;99.90;;;;;;5026510;28;20165;-83
2022/11/22 06:05:28;;;;;;;8.10;2.87;;;6.60;99.90;;;;;;5008308;28;20202;-84
2022/11/22 06:07:58;;;;;;;7.70;3.00;;;6.80;99.90;;;;;;5005947;28;20182;-84
2022/11/22 06:10:23;;;;;;;9.67;3.30;;;6.80;99.90;;;;;;5010479;28;20270;-84
2022/11/22 06:12:49;;;;;;;8.83;2.40;;;6.80;99.90;;;;;;5023997;28;20198;-83
2022/11/22 06:15:16;;;;;;;5.33;2.57;;;6.80;99.90;;;;;;5010067;28;20186;-84
2022/11/22 06:17:42;;;;;;;9.77;3.20;;;6.70;99.90;;;;;;5009137;28;20273;-83
2022/11/22 06:20:10;;;;;;;8.10;2.53;;;6.70;99.90;;;;;;5020515;28;20244;-85
2022/11/22 06:22:36;;;;;;;7.10;2.50;;;6.70;99.90;;;;;;5022578;28;20229;-85
2022/11/22 06:25:10;;;;;;;7.33;2.40;;;6.80;99.90;;;;;;5021699;28;20198;-85
2022/11/22 06:27:37;;;;;;;7.60;2.60;;;6.80;99.90;;;;;;5022660;28;20610;-84
2022/11/22 06:30:03;;;;;;;6.67;2.40;;;6.80;99.90;;;;;;5021806;28;20170;-83
2022/11/22 06:32:32;;;;;;;6.50;2.23;;;6.80;99.90;;;;;;5008264;28;20217;-84
2022/11/22 06:35:01;;;;;;;7.30;2.30;;;6.80;99.90;;;;;;5007583;28;20263;-84
2022/11/22 06:37:28;;;;;;;6.60;2.23;;;6.90;99.90;;;;;;5024302;28;20175;-82
2022/11/22 06:39:55;;;;;;;10.87;2.80;;;6.80;99.90;;;;;;5019740;28;20201;-84
2022/11/22 06:42:22;;;;;;;9.23;2.77;;;6.70;99.90;;;;;;5005658;28;20174;-83
2022/11/22 06:44:49;;;;;;;8.20;2.80;;;6.70;99.90;;;;;;5019750;28;20685;-84
2022/11/22 06:47:16;;;;;;;5.00;2.80;;;6.80;99.90;;;;;;5004470;28;20186;-82
2022/11/22 06:49:45;;;;;;;10.40;3.00;;;6.80;99.90;;;;;;5028244;28;20170;-83
2022/11/22 06:52:11;;;;;;;5.73;2.47;;;6.80;99.90;;;;;;5005319;28;20178;-81
2022/11/22 06:54:37;;;;;;;8.37;2.97;;;6.90;99.90;;;;;;5013385;28;20162;-83
2022/11/22 06:57:04;;;;;;;8.80;2.80;;;6.90;99.90;;;;;;5021626;28;20266;-82
2022/11/22 06:59:30;;;;;;;7.60;2.87;;;7.00;99.90;;;;;;5036521;28;20198;-84
2022/11/22 07:01:57;;;;;;;5.73;2.90;;;6.90;99.90;;;;;;5019139;28;20198;-82
2022/11/22 07:04:23;;;;;;;7.33;2.77;;;6.90;99.90;;;;;;5005551;28;20182;-82
2022/11/22 07:07:03;;;;;;;8.20;2.80;;;6.90;99.90;;;;;;4991679;28;20158;-83
2022/11/22 07:09:29;;;;;;;7.07;2.37;;;6.80;99.90;;;;;;5008334;28;20174;-83
2022/11/22 07:11:54;;;;;;;8.93;2.60;;;6.90;99.90;;;;;;5003328;28;20541;-83
2022/11/22 07:14:23;;;;;;;9.03;2.67;;;6.90;99.90;;;;;;5024161;28;20193;-84
2022/11/22 07:16:52;;;;;;;10.43;2.80;;;6.90;99.90;;;;;;5023184;28;20170;-82
2022/11/22 07:19:20;;;;;;;9.07;3.27;;;6.90;99.90;;;;;;5001084;28;20560;-85
2022/11/22 07:21:46;;;;;;;8.60;2.77;;;7.00;99.90;;;;;;4998787;28;20176;-81
2022/11/22 07:24:13;;;;;;;8.23;2.87;;;7.00;99.90;;;;;;5000438;28;20265;-82
2022/11/22 07:26:39;;;;;;;9.73;2.57;;;7.00;99.90;;;;;;4996350;28;20175;-82
2022/11/22 07:29:05;;;;;;;10.67;2.83;;;7.00;99.90;;;;;;4986347;28;20254;-83
2022/11/22 07:31:30;;;;;;;8.90;2.63;;;7.00;99.90;;;;;;5006871;28;20175;-83
2022/11/22 07:33:57;;;;;;;7.27;2.67;;;7.00;99.90;;;;;;4997012;28;20170;-80
2022/11/22 07:36:24;;;;;;;8.83;2.47;;;7.00;99.90;;;;;;5011975;28;20233;-79
2022/11/22 07:38:51;;;;;;;6.83;2.47;;;7.10;99.90;;;;;;4983390;28;20202;-83
2022/11/22 07:41:21;;;;;;;7.47;2.50;;;7.10;99.90;;;;;;4987994;28;20179;-84
2022/11/22 07:44:03;;;;;;;6.73;2.50;;;7.10;99.90;;;;;;4986304;28;20175;-82
2022/11/22 07:46:30;;;;;;;10.00;2.50;;;7.10;99.90;;;;;;4994870;28;20358;-81
2022/11/22 07:49:00;;;;;;;8.33;2.40;;;7.20;99.90;;;;;;4994831;28;20167;-81
2022/11/22 07:51:26;;;;;;;9.47;2.67;;;7.10;99.90;;;;;;4979477;28;20167;-81
2022/11/22 07:53:52;;;;;;;9.47;2.60;;;7.20;99.90;;;;;;4986368;28;20285;-84
2022/11/22 07:56:33;;;;;;;9.33;2.67;;;7.20;99.90;;;;;;4989479;28;20203;-82
2022/11/22 07:58:58;;;;;;;9.27;2.87;;;7.30;99.90;;;;;;4966965;28;20667;-81
2022/11/22 08:01:24;;;;;;;7.47;2.47;;;7.30;99.80;;;;;;5001603;28;20222;-80
2022/11/22 08:03:50;;;;;;;6.43;2.57;;;7.30;99.30;;;;;;4981917;28;20187;-81
2022/11/22 08:06:17;;;;;;;6.20;2.17;;;7.30;99.50;;;;;;5000459;28;20186;-80
2022/11/22 08:08:43;;;;;;;10.30;3.47;;;7.20;99.10;;;;;;4999955;28;20171;-81
2022/11/22 08:11:12;;;;;;;10.00;3.00;;;7.30;99.30;;;;;;5000549;28;20230;-82
2022/11/22 08:13:38;;;;;;;8.57;2.80;;;7.40;99.30;;;;;;5017039;28;20163;-80
2022/11/22 08:16:17;;;;;;;10.37;3.10;;;7.30;99.00;;;;;;5006582;28;20221;-80
2022/11/22 08:18:49;;;;;;;7.57;2.50;;;7.40;98.90;;;;;;5001031;28;20190;-79
2022/11/22 08:21:20;;;;;;;6.93;2.90;;;7.40;98.50;;;;;;4997577;28;20191;-81
2022/11/22 08:23:50;;;;;;;6.33;2.80;;;7.40;98.60;;;;;;4984592;28;20170;-84
2022/11/22 08:26:19;;;;;;;18.23;3.00;;;7.40;98.50;;;;;;4999961;28;20174;-85
2022/11/22 08:28:45;;;;;;;5.50;2.23;;;7.50;98.40;;;;;;4982909;28;20205;-85
2022/11/22 08:31:21;;;;;;;6.90;2.57;;;7.50;98.30;;;;;;4985588;28;20652;-84
2022/11/22 08:33:47;;;;;;;10.93;2.43;;;7.60;98.10;;;;;;4985919;28;20646;-84
2022/11/22 08:36:14;;;;;;;5.73;1.93;;;7.50;98.10;;;;;;4983946;28;20177;-84
2022/11/22 08:38:43;;;;;;;6.43;2.40;;;7.70;98.10;;;;;;5002746;28;20277;-85
2022/11/22 08:41:09;;;;;;;8.03;2.60;;;7.60;97.90;;;;;;5003496;28;20174;-84
2022/11/22 08:43:36;;;;;;;6.27;2.00;;;7.60;97.80;;;;;;4984531;28;20228;-85
2022/11/22 08:46:03;;;;;;;4.57;2.27;;;7.60;97.90;;;;;;5002710;28;20195;-84
2022/11/22 08:48:32;;;;;;;5.47;2.20;;;7.60;98.30;;;;;;5008995;28;20163;-85
2022/11/22 08:51:00;;;;;;;6.43;2.53;;;7.60;98.20;;;;;;4994713;28;20194;-85
2022/11/22 08:53:27;;;;;;;6.73;2.20;;;7.70;98.00;;;;;;4991173;28;20182;-85
2022/11/22 08:55:53;;;;;;;6.63;2.30;;;7.70;98.30;;;;;;4988782;28;20186;-84
2022/11/22 08:58:19;;;;;;;8.80;2.33;;;7.70;98.30;;;;;;5000857;28;20639;-85
2022/11/22 09:00:45;;;;;;;8.03;2.97;;;7.70;98.70;;;;;;4986541;28;20191;-85
2022/11/22 09:03:11;;;;;;;7.97;2.57;;;7.70;98.70;;;;;;4984615;28;20193;-84
2022/11/22 09:05:36;;;;;;;6.27;2.40;;;7.70;98.60;;;;;;4999543;28;20182;-85
2022/11/22 09:08:03;;;;;;;6.63;2.57;;;7.70;98.70;;;;;;4999943;28;20531;-83
2022/11/22 09:10:29;;;;;;;7.33;2.67;;;7.70;99.60;;;;;;4998182;28;20175;-80
2022/11/22 09:12:55;;;;;;;6.97;2.00;;;7.70;99.90;;;;;;4995234;28;20186;-81
2022/11/22 09:15:21;;;;;;;7.53;2.67;;;7.80;99.90;;;;;;4976299;28;20182;-81
2022/11/22 09:17:47;;;;;;;6.27;2.30;;;7.80;99.90;;;;;;4993677;28;20254;-80
2022/11/22 09:20:15;;;;;;;7.10;2.63;;;7.80;99.90;;;;;;4996347;28;20682;-85
2022/11/22 09:22:40;;;;;;;6.97;2.83;;;7.80;99.90;;;;;;4982991;28;20191;-83
2022/11/22 09:25:07;;;;;;;6.10;3.00;;;7.80;99.90;;;;;;4981925;28;20182;-82
2022/11/22 09:27:33;;;;;;;7.93;3.70;;;7.50;99.90;;;;;;4998419;28;20171;-81
2022/11/22 09:29:59;;;;;;;9.60;3.70;;;7.70;99.90;;;;;;4981172;28;20186;-82
2022/11/22 09:32:24;;;;;;;5.90;3.27;;;7.80;99.90;;;;;;4999942;28;20183;-81
2022/11/22 09:34:50;;;;;;;10.90;3.77;;;7.60;99.90;;;;;;4981000;28;20198;-84
2022/11/22 09:37:18;;;;;;;7.13;2.63;;;7.80;99.90;;;;;;4980366;28;20639;-82
2022/11/22 09:39:45;;;;;;;4.27;2.40;;;7.70;99.90;;;;;;4980542;28;20214;-82
2022/11/22 09:42:36;;;;;;;6.97;2.93;;;7.90;99.90;;;;;;5001081;28;20164;-82
2022/11/22 09:45:49;;;;;;;5.57;2.90;;;7.80;99.90;;;;;;4998501;28;20171;-82
2022/11/22 09:48:38;;;;;;;5.10;2.23;;;7.80;99.90;;;;;;4981696;28;20197;-82
2022/11/22 09:51:14;;;;;;;8.00;2.80;;;7.90;99.90;;;;;;4980190;28;20550;-81
2022/11/22 09:53:54;;;;;;;6.43;2.93;;;7.90;99.90;;;;;;4996943;28;20174;-83
2022/11/22 09:56:24;;;;;;;4.43;2.47;;;7.90;99.90;;;;;;4980161;28;20179;-84
2022/11/22 09:59:11;;;;;;;4.87;2.43;;;7.90;99.90;;;;;;4997682;28;20222;-82
2022/11/22 10:01:45;;;;;;;5.47;2.33;;;7.90;99.90;;;;;;4997453;28;20226;-84
2022/11/22 10:04:19;;;;;;;4.57;2.33;;;8.00;99.90;;;;;;4998157;28;20655;-83
2022/11/22 10:07:06;;;;;;;11.97;3.23;;;8.00;99.90;;;;;;4982118;28;20225;-80
2022/11/22 10:09:48;;;;;;;3.97;1.87;;;8.10;99.90;;;;;;5014312;28;20221;-81
2022/11/22 10:12:33;;;;;;;4.67;2.13;;;8.10;99.90;;;;;;5016933;28;20179;-81
2022/11/22 10:15:18;;;;;;;4.93;2.27;;;8.10;99.90;;;;;;5014717;28;20178;-80
2022/11/22 10:18:00;;;;;;;4.30;1.97;;;8.20;99.90;;;;;;5000005;28;20167;-80
2022/11/22 10:20:55;;;;;;;6.80;2.00;;;8.30;99.90;;;;;;4998579;28;20195;-81
2022/11/22 10:23:24;;;;;;;3.30;1.70;;;8.40;98.70;;;;;;5002777;28;20178;-83
2022/11/22 10:26:10;;;;;;;6.30;1.80;;;8.50;97.40;;;;;;4985578;28;20538;-82
2022/11/22 10:28:47;;;;;;;6.00;2.03;;;8.50;96.20;;;;;;5008281;28;20175;-79
2022/11/22 10:31:25;;;;;;;3.33;1.73;;;8.50;96.50;;;;;;4991249;28;20190;-82
2022/11/22 10:34:14;;;;;;;6.20;2.80;;;8.60;95.70;;;;;;5013084;28;20186;-83
2022/11/22 10:37:00;;;;;;;7.03;3.10;;;8.50;94.80;;;;;;4997986;28;20262;-80
2022/11/22 10:39:53;;;;;;;8.87;4.90;;;8.50;95.40;;;;;;5004684;28;20203;-81
2022/11/22 10:42:29;;;;;;;5.83;2.90;;;8.50;95.30;;;;;;4995394;28;20178;-78
2022/11/22 10:45:29;;;;;;;4.90;2.20;;;8.60;95.10;;;;;;5011987;28;20178;-80
2022/11/22 10:48:13;;;;;;;6.97;3.00;;;8.50;94.80;;;;;;4989861;28;20183;-81
2022/11/22 10:51:12;;;;;;;5.43;1.83;;;8.70;95.10;;;;;;4989631;28;20182;-79
2022/11/22 10:53:59;;;;;;;4.77;1.70;;;8.70;94.60;;;;;;5003636;28;20179;-80
2022/11/22 10:56:41;;;;;;;4.30;1.73;;;8.60;94.70;;;;;;4986032;28;20554;-79
2022/11/22 10:59:30;;;;;;;5.63;2.07;;;8.70;95.70;;;;;;5017497;28;20195;-78
2022/11/22 11:02:35;;;;;;;3.33;1.70;;;8.80;96.00;;;;;;5002475;28;20193;-81
2022/11/22 11:05:13;;;;;;;3.27;1.40;;;8.70;95.90;;;;;;5007430;28;20191;-81
2022/11/22 11:07:44;;;;;;;4.43;1.80;;;8.60;98.00;;;;;;5002178;28;20635;-81
2022/11/22 11:10:36;;;;;;;4.77;1.80;;;8.60;99.10;;;;;;4997513;28;20190;-82
2022/11/22 11:13:11;;;;;;;2.53;1.43;;;8.60;99.80;;;;;;4982174;28;20213;-81
2022/11/22 11:15:46;;;;;;;5.53;1.90;;;8.60;99.90;;;;;;4996802;28;20173;-81
2022/11/22 11:18:18;;;;;;;3.77;1.80;;;8.60;99.90;;;;;;4996359;28;20258;-79
2022/11/22 11:20:47;;;;;;;2.70;1.50;;;8.60;99.90;;;;;;4999261;28;20275;-84
2022/11/22 11:23:14;;;;;;;4.60;1.57;;;8.60;99.90;;;;;;4999677;28;20183;-85
2022/11/22 11:25:42;;;;;;;4.63;1.50;;;8.60;99.90;;;;;;4984250;28;20316;-86
2022/11/22 11:28:22;;;;;;;3.27;1.40;;;8.70;99.90;;;;;;5009242;28;20249;-85
2022/11/22 11:30:59;;;;;;;2.67;1.20;;;8.70;99.90;;;;;;4986968;28;20167;-86
2022/11/22 11:33:29;;;;;;;5.20;2.90;;;8.70;99.90;;;;;;5006506;28;20182;-79
2022/11/22 11:36:16;;;;;;;2.63;1.63;;;8.70;99.90;;;;;;4999001;28;20175;-81
2022/11/22 11:38:42;;;;;;;4.90;2.50;;;8.80;99.50;;;;;;4997310;28;20190;-80
2022/11/22 11:41:18;;;;;;;4.40;1.47;;;8.80;99.60;;;;;;4997130;28;20179;-83
2022/11/22 11:43:46;;;;;;;4.10;1.10;;;8.90;99.40;;;;;;4997900;28;20249;-86
2022/11/22 11:46:27;;;;;;;3.90;1.33;;;8.90;98.20;;;;;;4981154;28;20187;-85
2022/11/22 11:49:15;;;;;;;3.30;1.30;;;9.00;97.60;;;;;;4981854;28;20171;-85
2022/11/22 11:51:48;;;;;;;5.13;1.30;;;9.00;96.50;;;;;;4999444;28;20233;-84
2022/11/22 11:54:32;;;;;;;2.53;1.20;;;9.00;96.20;;;;;;4981650;28;20183;-85
2022/11/22 11:56:59;;;;;;;3.43;1.30;;;9.10;95.80;;;;;;4980287;28;20179;-85
2022/11/22 11:59:39;;;;;;;4.13;1.10;;;9.10;95.20;;;;;;4998296;28;20701;-84
2022/11/22 12:02:11;;;;;;;2.03;0.90;;;9.10;94.60;;;;;;4998634;28;20171;-85
2022/11/22 12:04:54;;;;;;;5.33;1.90;;;9.20;94.60;;;;;;4980266;28;20222;-84
2022/11/22 12:07:23;;;;;;;3.40;1.40;;;9.10;94.90;;;;;;4998276;28;20623;-85
2022/11/22 12:09:50;;;;;;;2.33;1.30;;;9.10;94.60;;;;;;4997966;28;20530;-85
2022/11/22 12:12:44;;;;;;;3.27;1.30;;;9.10;94.30;;;;;;4985489;28;20171;-82
2022/11/22 12:15:42;;;;;;;3.93;1.27;;;9.20;94.40;;;;;;5000693;28;20531;-82
2022/11/22 12:18:42;;;;;;;3.27;1.20;;;9.20;93.10;;;;;;4984445;28;20167;-80
2022/11/22 12:21:53;;;;;;;2.87;1.40;;;9.20;93.60;;;;;;4998769;28;20180;-83
2022/11/22 12:24:58;;;;;;;3.60;1.67;;;9.30;93.70;;;;;;4979030;28;20169;-84
2022/11/22 12:27:26;;;;;;;2.17;0.90;;;9.30;93.60;;;;;;4996278;28;20159;-84
2022/11/22 12:29:52;;;;;;;3.27;1.73;;;9.40;93.20;;;;;;4995994;28;20198;-84
2022/11/22 12:32:26;;;;;;;3.80;1.63;;;9.40;93.30;;;;;;4979494;28;20238;-84
2022/11/22 12:35:03;;;;;;;3.73;1.40;;;9.40;93.00;;;;;;4996009;28;20183;-85
2022/11/22 12:37:48;;;;;;;5.50;1.60;;;9.40;92.50;;;;;;4982787;28;20237;-83
2022/11/22 12:40:25;;;;;;;2.00;1.20;;;9.40;92.40;;;;;;5001007;28;20202;-83
2022/11/22 12:43:05;;;;;;;3.33;1.33;;;9.40;92.50;;;;;;4993263;28;20229;-84
2022/11/22 12:45:49;;;;;;;2.23;1.20;;;9.30;93.30;;;;;;4988652;28;20243;-85
2022/11/22 12:48:36;;;;;;;3.80;1.30;;;9.30;94.50;;;;;;5004367;28;20159;-86
2022/11/22 12:51:08;;;;;;;2.60;1.10;;;9.30;94.40;;;;;;5003516;28;20198;-85
2022/11/22 12:53:46;;;;;;;2.30;1.00;;;9.40;95.00;;;;;;4970962;28;20225;-86
2022/11/22 12:56:34;;;;;;;4.00;1.60;;;9.30;96.50;;;;;;5009992;28;20183;-86
2022/11/22 12:59:05;;;;;;;2.70;1.30;;;9.20;97.90;;;;;;5009622;28;20231;-86
2022/11/22 13:01:34;;;;;;;2.70;1.10;;;9.20;99.00;;;;;;5026945;28;20228;-84
2022/11/22 13:04:09;;;;;;;9.50;2.13;;;9.20;99.10;;;;;;5005973;28;20198;-84
2022/11/22 13:06:48;;;;;;;4.30;1.60;;;9.20;99.90;;;;;;5004989;28;20189;-85
2022/11/22 13:09:20;;;;;;;3.80;1.17;;;9.20;99.90;;;;;;5029377;28;20170;-84
2022/11/22 13:11:57;;;;;;;3.97;1.70;;;9.20;99.90;;;;;;5040434;28;20154;-85
2022/11/22 13:14:42;;;;;;;2.77;1.40;;;9.20;99.90;;;;;;5041668;28;20170;-83
2022/11/22 13:17:11;;;;;;;4.97;1.70;;;9.30;99.90;;;;;;5036428;28;20186;-86
2022/11/22 13:19:42;;;;;;;3.67;1.73;;;9.00;99.90;;;;;;5034449;28;20692;-85
2022/11/22 13:22:20;;;;;;;4.37;1.73;;;9.20;99.90;;;;;;5007923;28;20214;-86
2022/11/22 13:25:16;;;;;;;4.17;1.70;;;9.20;99.90;;;;;;5010918;28;20173;-84
2022/11/22 13:27:50;;;;;;;2.70;1.50;;;9.30;99.90;;;;;;5010192;28;20182;-85
2022/11/22 13:30:38;;;;;;;2.77;1.50;;;9.40;99.90;;;;;;5013707;28;20174;-85
2022/11/22 13:33:05;;;;;;;4.90;1.63;;;9.50;99.90;;;;;;4991698;28;20721;-86
2022/11/22 13:35:34;;;;;;;3.33;1.33;;;9.60;99.90;;;;;;5008561;28;20190;-85
2022/11/22 13:38:08;;;;;;;3.80;1.50;;;9.70;99.90;;;;;;5007057;28;20163;-84
2022/11/22 13:40:51;;;;;;;3.63;1.60;;;9.60;99.90;;;;;;4999436;28;20215;-85
2022/11/22 13:43:16;;;;;;;3.60;1.50;;;9.70;99.90;;;;;;5021266;28;20159;-83